Time;durP1;ratioP1;P1;durP2;ratioP2;P2;SDS_P1;SDS_P2;PMS_P1;PMS_P2;Temp;Humidity;BMP_temperature;BMP_pressure;BME280_temperature;BME280_humidity;BME280_pressure;Samples;Min_cycle;Max_cycle;Signal;HPM_P1;HPM_P2
2022/03/27 00:02:05;;;;;;;16.20;8.63;;;;;;;;;;5035170;28;20057;-73
2022/03/27 00:04:31;;;;;;;23.38;10.55;;;;;;;;;;5036272;28;20096;-72
2022/03/27 00:06:57;;;;;;;14.68;8.18;;;;;;;;;;5055744;28;20095;-72
2022/03/27 00:09:23;;;;;;;14.70;6.90;;;;;;;;;;5053881;28;20072;-73
2022/03/27 00:11:49;;;;;;;13.05;6.75;;;;;;;;;;5057089;28;20589;-72
2022/03/27 00:14:15;;;;;;;16.40;7.53;;;;;;;;;;5049687;28;20033;-72
2022/03/27 00:16:41;;;;;;;14.02;6.55;;;;;;;;;;5047799;28;20079;-73
2022/03/27 00:19:07;;;;;;;12.10;6.00;;;;;;;;;;5038274;28;20038;-72
2022/03/27 00:21:33;;;;;;;14.90;6.88;;;;;;;;;;5047679;28;20795;-73
2022/03/27 00:23:59;;;;;;;11.80;6.57;;;;;;;;;;5040583;28;20544;-72
2022/03/27 00:26:25;;;;;;;17.67;9.27;;;;;;;;;;5033206;28;20595;-72
2022/03/27 00:28:52;;;;;;;17.00;8.98;;;;;;;;;;5040774;28;20044;-72
2022/03/27 00:31:18;;;;;;;18.33;9.32;;;;;;;;;;5044561;28;20031;-73
2022/03/27 00:33:45;;;;;;;14.68;8.80;;;;;;;;;;5041532;28;20049;-72
2022/03/27 00:36:13;;;;;;;12.95;7.70;;;;;;;;;;5043552;28;20029;-72
2022/03/27 00:38:39;;;;;;;14.75;8.80;;;;;;;;;;5040298;28;20086;-72
2022/03/27 00:41:05;;;;;;;15.48;7.53;;;;;;;;;;5042870;28;20071;-72
2022/03/27 00:43:32;;;;;;;18.88;8.45;;;;;;;;;;5040452;28;20102;-72
2022/03/27 00:45:58;;;;;;;15.27;9.15;;;;;;;;;;5035049;28;20025;-73
2022/03/27 00:48:25;;;;;;;16.00;8.60;;;;;;;;;;5047255;28;20052;-73
2022/03/27 00:50:52;;;;;;;16.60;8.27;;;;;;;;;;5043734;28;20484;-72
2022/03/27 00:53:18;;;;;;;16.20;7.82;;;;;;;;;;5042342;28;20464;-72
2022/03/27 00:55:45;;;;;;;16.48;8.38;;;;;;;;;;5044029;28;20036;-72
2022/03/27 00:58:12;;;;;;;15.43;9.15;;;;;;;;;;5037683;28;20092;-72
2022/03/27 01:00:38;;;;;;;16.63;7.55;;;;;;;;;;5043925;28;20033;-72
2022/03/27 01:03:05;;;;;;;16.25;8.20;;;;;;;;;;5036704;28;20084;-73
2022/03/27 01:05:31;;;;;;;19.20;8.32;;;;;;;;;;5045246;28;20029;-72
2022/03/27 01:07:57;;;;;;;14.20;8.18;;;;;;;;;;5046371;28;20025;-73
2022/03/27 01:10:23;;;;;;;13.73;7.00;;;;;;;;;;5039265;28;20032;-72
2022/03/27 01:12:49;;;;;;;13.05;6.88;;;;;;;;;;5045217;28;20472;-72
2022/03/27 01:15:32;;;;;;;12.00;6.70;;;;;;;;;;5042951;28;20040;-72
2022/03/27 01:17:59;;;;;;;15.13;7.13;;;;;;;;;;5045139;28;20041;-73
2022/03/27 01:20:39;;;;;;;13.30;6.93;;;;;;;;;;5041078;28;20460;-72
2022/03/27 01:23:09;;;;;;;12.07;6.35;;;;;;;;;;5049725;28;20459;-72
2022/03/27 01:25:35;;;;;;;12.05;7.63;;;;;;;;;;5048332;28;20037;-72
2022/03/27 01:28:01;;;;;;;11.82;6.78;;;;;;;;;;5032655;28;20033;-72
2022/03/27 01:30:28;;;;;;;11.70;7.15;;;;;;;;;;5040844;28;20049;-72
2022/03/27 01:32:55;;;;;;;15.55;7.07;;;;;;;;;;5032560;28;20041;-72
2022/03/27 01:35:21;;;;;;;15.80;7.25;;;;;;;;;;5035529;28;20033;-72
2022/03/27 01:37:48;;;;;;;13.07;7.28;;;;;;;;;;5037510;28;20117;-73
2022/03/27 01:40:14;;;;;;;14.68;6.80;;;;;;;;;;5048519;28;20036;-72
2022/03/27 01:42:40;;;;;;;16.40;7.22;;;;;;;;;;5047894;28;20037;-72
2022/03/27 01:45:06;;;;;;;12.93;6.38;;;;;;;;;;5052019;28;20118;-72
2022/03/27 01:47:33;;;;;;;11.35;6.20;;;;;;;;;;5050619;28;20056;-73
2022/03/27 01:50:01;;;;;;;12.50;6.10;;;;;;;;;;5035536;28;20380;-72
2022/03/27 01:52:27;;;;;;;11.60;5.82;;;;;;;;;;5041926;28;20029;-72
2022/03/27 01:54:53;;;;;;;11.80;5.25;;;;;;;;;;5038881;28;20093;-72
2022/03/27 01:57:19;;;;;;;9.88;5.53;;;;;;;;;;5044767;28;20036;-72
2022/03/27 01:59:45;;;;;;;10.38;5.18;;;;;;;;;;5045240;28;20530;-72
2022/03/27 02:02:11;;;;;;;11.73;5.22;;;;;;;;;;5034483;28;20040;-72
2022/03/27 02:04:37;;;;;;;13.25;6.18;;;;;;;;;;5036138;28;20089;-72
2022/03/27 02:07:03;;;;;;;12.85;5.35;;;;;;;;;;5042769;28;20045;-72
2022/03/27 02:09:29;;;;;;;12.77;5.63;;;;;;;;;;5042256;28;20047;-73
2022/03/27 02:11:55;;;;;;;15.45;5.68;;;;;;;;;;5035469;28;20033;-72
2022/03/27 02:14:21;;;;;;;10.55;5.13;;;;;;;;;;5039185;28;20059;-72
2022/03/27 02:16:47;;;;;;;11.73;5.22;;;;;;;;;;5034913;28;20667;-72
2022/03/27 02:19:13;;;;;;;8.68;4.90;;;;;;;;;;5037151;28;20033;-72
2022/03/27 02:21:41;;;;;;;9.88;5.05;;;;;;;;;;5046033;28;20044;-72
2022/03/27 02:24:08;;;;;;;9.10;5.22;;;;;;;;;;5034403;28;20847;-72
2022/03/27 02:26:34;;;;;;;11.73;5.50;;;;;;;;;;5038300;28;20021;-72
2022/03/27 02:29:00;;;;;;;9.77;4.95;;;;;;;;;;5040110;28;20518;-72
2022/03/27 02:31:26;;;;;;;9.52;4.50;;;;;;;;;;5039384;28;20464;-72
2022/03/27 02:33:52;;;;;;;11.40;5.50;;;;;;;;;;5040372;28;20495;-71
2022/03/27 02:36:19;;;;;;;12.85;5.80;;;;;;;;;;5045186;28;20167;-72
2022/03/27 02:38:45;;;;;;;11.95;5.93;;;;;;;;;;5045019;28;20052;-72
2022/03/27 02:41:12;;;;;;;14.70;7.20;;;;;;;;;;5041474;28;20132;-72
2022/03/27 02:43:38;;;;;;;14.88;6.70;;;;;;;;;;5037863;28;20083;-72
2022/03/27 02:46:07;;;;;;;15.02;7.15;;;;;;;;;;5034048;28;20221;-72
2022/03/27 02:48:33;;;;;;;18.90;7.70;;;;;;;;;;5033553;28;20044;-73
2022/03/27 02:50:59;;;;;;;11.77;6.03;;;;;;;;;;5039399;28;20029;-72
2022/03/27 02:53:25;;;;;;;18.90;6.78;;;;;;;;;;5034668;28;20041;-72
2022/03/27 02:55:51;;;;;;;11.18;5.68;;;;;;;;;;5047605;28;20029;-73
2022/03/27 02:58:17;;;;;;;12.18;5.43;;;;;;;;;;5036307;28;20808;-72
2022/03/27 03:00:43;;;;;;;12.63;5.70;;;;;;;;;;5044264;28;20037;-72
2022/03/27 03:03:10;;;;;;;14.50;6.15;;;;;;;;;;5035222;28;20116;-73
2022/03/27 03:05:38;;;;;;;12.25;6.20;;;;;;;;;;5038708;28;20112;-72
2022/03/27 03:08:06;;;;;;;15.65;5.57;;;;;;;;;;5039307;28;20539;-73
2022/03/27 03:10:32;;;;;;;10.80;5.50;;;;;;;;;;5058677;28;20060;-73
2022/03/27 03:12:58;;;;;;;12.05;5.30;;;;;;;;;;5039306;28;20456;-72
2022/03/27 03:15:26;;;;;;;10.60;5.32;;;;;;;;;;5033948;28;20495;-73
2022/03/27 03:17:52;;;;;;;10.73;4.93;;;;;;;;;;5030827;28;20107;-73
2022/03/27 03:20:19;;;;;;;15.25;4.80;;;;;;;;;;5032765;28;20045;-73
2022/03/27 03:22:45;;;;;;;9.90;4.30;;;;;;;;;;5038275;28;20171;-73
2022/03/27 03:25:11;;;;;;;10.02;4.63;;;;;;;;;;5042688;28;20037;-73
2022/03/27 03:27:37;;;;;;;8.50;4.43;;;;;;;;;;5038195;28;20036;-72
2022/03/27 03:30:04;;;;;;;11.23;4.78;;;;;;;;;;5034551;28;20040;-73
2022/03/27 03:32:30;;;;;;;12.40;4.88;;;;;;;;;;5037990;28;20039;-72
2022/03/27 03:34:56;;;;;;;12.93;4.40;;;;;;;;;;5035244;28;20085;-72
2022/03/27 03:37:23;;;;;;;9.70;4.28;;;;;;;;;;5035473;28;20057;-73
2022/03/27 03:39:49;;;;;;;10.75;4.50;;;;;;;;;;5039007;28;20033;-73
2022/03/27 03:42:15;;;;;;;10.52;5.28;;;;;;;;;;5039150;28;20187;-72
2022/03/27 03:44:43;;;;;;;12.80;5.63;;;;;;;;;;5044393;28;20487;-72
2022/03/27 03:47:09;;;;;;;11.75;5.15;;;;;;;;;;5041832;28;20025;-72
2022/03/27 03:49:35;;;;;;;9.57;5.25;;;;;;;;;;5041121;28;20069;-72
2022/03/27 03:52:01;;;;;;;7.90;4.72;;;;;;;;;;5043392;28;20102;-72
2022/03/27 03:54:27;;;;;;;8.95;4.28;;;;;;;;;;5038493;28;20510;-73
2022/03/27 03:56:53;;;;;;;9.82;4.22;;;;;;;;;;5043642;28;20020;-73
2022/03/27 03:59:19;;;;;;;9.52;4.70;;;;;;;;;;5039035;28;20036;-72
2022/03/27 04:01:45;;;;;;;12.38;4.50;;;;;;;;;;5040649;28;20041;-72
2022/03/27 04:04:11;;;;;;;11.35;5.57;;;;;;;;;;5035783;28;20064;-72
2022/03/27 04:06:37;;;;;;;9.13;4.90;;;;;;;;;;5036559;28;20029;-73
2022/03/27 04:09:03;;;;;;;9.38;4.70;;;;;;;;;;5049042;28;20036;-72
2022/03/27 04:11:29;;;;;;;7.57;3.90;;;;;;;;;;5040631;28;20551;-73
2022/03/27 04:13:55;;;;;;;8.18;4.55;;;;;;;;;;5042225;28;20040;-72
2022/03/27 04:16:21;;;;;;;8.68;4.13;;;;;;;;;;5045980;28;20179;-72
2022/03/27 04:18:47;;;;;;;13.52;4.35;;;;;;;;;;5034471;28;20083;-72
2022/03/27 04:21:13;;;;;;;12.27;4.57;;;;;;;;;;5037912;28;20041;-72
2022/03/27 04:23:39;;;;;;;9.18;4.97;;;;;;;;;;5040366;28;20033;-73
2022/03/27 04:26:05;;;;;;;11.60;5.18;;;;;;;;;;5039187;28;20093;-72
2022/03/27 04:28:31;;;;;;;11.00;5.65;;;;;;;;;;5045135;28;20036;-73
2022/03/27 04:30:57;;;;;;;10.10;5.10;;;;;;;;;;5043327;28;20025;-72
2022/03/27 04:33:23;;;;;;;9.65;4.40;;;;;;;;;;5039152;28;20029;-73
2022/03/27 04:35:49;;;;;;;11.48;5.55;;;;;;;;;;5038705;28;20037;-73
2022/03/27 04:38:16;;;;;;;10.65;4.50;;;;;;;;;;5040884;28;20032;-72
2022/03/27 04:40:42;;;;;;;9.60;5.38;;;;;;;;;;5037282;28;20037;-72
2022/03/27 04:43:08;;;;;;;8.73;3.85;;;;;;;;;;5040189;28;20021;-72
2022/03/27 04:45:34;;;;;;;9.05;4.55;;;;;;;;;;5047518;28;20048;-72
2022/03/27 04:48:00;;;;;;;10.77;5.53;;;;;;;;;;5049112;28;20020;-72
2022/03/27 04:50:27;;;;;;;10.77;5.47;;;;;;;;;;5046707;28;20033;-72
2022/03/27 04:52:53;;;;;;;12.55;5.30;;;;;;;;;;5040296;28;20495;-72
2022/03/27 04:55:19;;;;;;;13.27;5.10;;;;;;;;;;5037872;28;20041;-73
2022/03/27 04:57:45;;;;;;;8.48;4.20;;;;;;;;;;5043624;28;20063;-72
2022/03/27 05:00:14;;;;;;;10.90;4.60;;;;;;;;;;5045400;28;20451;-72
2022/03/27 05:02:40;;;;;;;10.48;4.47;;;;;;;;;;5041377;28;20030;-72
2022/03/27 05:05:08;;;;;;;10.75;5.32;;;;;;;;;;5040364;28;20033;-73
2022/03/27 05:07:36;;;;;;;11.63;6.82;;;;;;;;;;5036641;28;20028;-73
2022/03/27 05:10:03;;;;;;;12.88;6.10;;;;;;;;;;5048862;28;20108;-72
2022/03/27 05:12:29;;;;;;;9.88;5.25;;;;;;;;;;5055343;28;20064;-72
2022/03/27 05:14:55;;;;;;;11.75;4.80;;;;;;;;;;5041288;28;20404;-73
2022/03/27 05:17:21;;;;;;;10.60;4.40;;;;;;;;;;5040800;28;20129;-73
2022/03/27 05:19:47;;;;;;;9.65;5.07;;;;;;;;;;5036832;28;20065;-73
2022/03/27 05:22:13;;;;;;;8.35;4.13;;;;;;;;;;5038302;28;20038;-73
2022/03/27 05:24:39;;;;;;;8.65;4.70;;;;;;;;;;5049013;28;20043;-72
2022/03/27 05:27:05;;;;;;;11.88;4.38;;;;;;;;;;5042805;28;20464;-72
2022/03/27 05:29:31;;;;;;;9.57;5.25;;;;;;;;;;5035488;28;20116;-73
2022/03/27 05:31:58;;;;;;;7.32;4.20;;;;;;;;;;5041375;28;20049;-72
2022/03/27 05:34:24;;;;;;;61.10;27.77;;;;;;;;;;5040687;28;20033;-72
2022/03/27 05:36:50;;;;;;;30.58;13.57;;;;;;;;;;5033030;28;20029;-72
2022/03/27 05:39:17;;;;;;;33.65;19.85;;;;;;;;;;5039170;28;20033;-72
2022/03/27 05:41:43;;;;;;;17.23;9.80;;;;;;;;;;5033644;28;20033;-73
2022/03/27 05:44:09;;;;;;;15.52;7.85;;;;;;;;;;5036336;28;20033;-72
2022/03/27 05:46:36;;;;;;;14.23;6.07;;;;;;;;;;5039830;28;20112;-73
2022/03/27 05:49:02;;;;;;;10.48;5.68;;;;;;;;;;5033071;28;20112;-72
2022/03/27 05:51:28;;;;;;;19.67;5.80;;;;;;;;;;5035858;28;20580;-72
2022/03/27 05:53:54;;;;;;;14.18;6.00;;;;;;;;;;5045622;28;20076;-73
2022/03/27 05:56:20;;;;;;;16.98;5.75;;;;;;;;;;5043087;28;20025;-73
2022/03/27 05:58:46;;;;;;;11.82;5.93;;;;;;;;;;5033604;28;20037;-72
2022/03/27 06:01:12;;;;;;;12.38;5.35;;;;;;;;;;5036751;28;20040;-73
2022/03/27 06:03:38;;;;;;;13.15;5.55;;;;;;;;;;5035536;28;20700;-72
2022/03/27 06:06:04;;;;;;;11.38;5.20;;;;;;;;;;5051587;28;20116;-72
2022/03/27 06:08:30;;;;;;;10.73;5.28;;;;;;;;;;5053789;28;20648;-73
2022/03/27 06:10:56;;;;;;;10.98;5.32;;;;;;;;;;5050121;28;20121;-73
2022/03/27 06:13:22;;;;;;;10.75;5.50;;;;;;;;;;5046601;28;20101;-73
2022/03/27 06:15:51;;;;;;;10.80;5.90;;;;;;;;;;5032261;28;20029;-73
2022/03/27 06:18:17;;;;;;;12.70;7.00;;;;;;;;;;5050792;28;20033;-73
2022/03/27 06:20:43;;;;;;;14.18;6.90;;;;;;;;;;5039805;28;20080;-72
2022/03/27 06:23:09;;;;;;;14.48;6.25;;;;;;;;;;5038250;28;20043;-73
2022/03/27 06:25:38;;;;;;;11.77;6.03;;;;;;;;;;5033886;28;20039;-73
2022/03/27 06:28:04;;;;;;;11.60;5.90;;;;;;;;;;5036559;28;20197;-73
2022/03/27 06:30:32;;;;;;;10.50;5.72;;;;;;;;;;5034736;28;20083;-73
2022/03/27 06:32:59;;;;;;;10.27;5.63;;;;;;;;;;5035291;28;20065;-72
2022/03/27 06:35:25;;;;;;;12.65;5.68;;;;;;;;;;5035532;28;20072;-73
2022/03/27 06:37:51;;;;;;;13.25;7.53;;;;;;;;;;5040204;28;20040;-72
2022/03/27 06:40:19;;;;;;;15.43;8.35;;;;;;;;;;5039211;28;20463;-72
2022/03/27 06:42:46;;;;;;;16.80;7.95;;;;;;;;;;5040013;28;20068;-73
2022/03/27 06:45:13;;;;;;;18.63;8.20;;;;;;;;;;5041320;28;20040;-72
2022/03/27 06:47:39;;;;;;;13.70;7.45;;;;;;;;;;5039390;28;20144;-73
2022/03/27 06:50:06;;;;;;;13.40;6.82;;;;;;;;;;5034326;28;20390;-72
2022/03/27 06:52:32;;;;;;;17.95;6.93;;;;;;;;;;5035376;28;20736;-72
2022/03/27 06:54:59;;;;;;;15.43;6.55;;;;;;;;;;5052870;28;20040;-72
2022/03/27 06:57:25;;;;;;;11.90;5.60;;;;;;;;;;5043792;28;20032;-73
2022/03/27 07:05:22;;;;;;;11.50;5.85;;;;;;;;;;5037429;28;20049;-73
2022/03/27 07:07:49;;;;;;;12.65;6.28;;;;;;;;;;5040097;28;20935;-73
2022/03/27 07:10:16;;;;;;;11.75;6.40;;;;;;;;;;5037583;28;20461;-72
2022/03/27 07:12:42;;;;;;;11.13;6.25;;;;;;;;;;5041169;28;20025;-72
2022/03/27 07:15:09;;;;;;;13.35;6.60;;;;;;;;;;5038852;28;20114;-72
2022/03/27 07:17:45;;;;;;;11.88;6.85;;;;;;;;;;5038768;28;20084;-73
2022/03/27 07:20:12;;;;;;;10.88;6.55;;;;;;;;;;5039883;28;20138;-73
2022/03/27 07:22:39;;;;;;;12.00;7.43;;;;;;;;;;5037876;28;20380;-72
2022/03/27 07:25:07;;;;;;;10.38;6.32;;;;;;;;;;5046211;28;20391;-73
2022/03/27 07:27:33;;;;;;;10.73;6.80;;;;;;;;;;5041012;28;20144;-72
2022/03/27 07:29:59;;;;;;;10.98;6.22;;;;;;;;;;5059634;28;20032;-72
2022/03/27 07:32:25;;;;;;;12.05;5.70;;;;;;;;;;5035722;28;20038;-73
2022/03/27 07:34:51;;;;;;;11.60;6.20;;;;;;;;;;5041593;28;20063;-73
2022/03/27 07:37:17;;;;;;;14.70;6.00;;;;;;;;;;5040790;28;20112;-72
2022/03/27 07:39:43;;;;;;;16.40;6.50;;;;;;;;;;5044019;28;20138;-73
2022/03/27 07:42:09;;;;;;;14.35;7.03;;;;;;;;;;5040038;28;20107;-73
2022/03/27 07:44:35;;;;;;;13.45;6.53;;;;;;;;;;5042503;28;20550;-73
2022/03/27 07:47:01;;;;;;;13.90;6.90;;;;;;;;;;5041964;28;20489;-73
2022/03/27 07:49:27;;;;;;;11.50;6.45;;;;;;;;;;5036820;28;20041;-73
2022/03/27 07:51:54;;;;;;;13.98;6.00;;;;;;;;;;5042922;28;20072;-72
2022/03/27 07:54:20;;;;;;;11.15;6.07;;;;;;;;;;5037791;28;20055;-73
2022/03/27 07:56:46;;;;;;;14.30;6.03;;;;;;;;;;5038115;28;20492;-72
2022/03/27 07:59:12;;;;;;;16.77;5.50;;;;;;;;;;5044016;28;20793;-73
2022/03/27 08:01:38;;;;;;;9.52;5.63;;;;;;;;;;5034857;28;20041;-73
2022/03/27 08:04:05;;;;;;;13.00;4.53;;;;;;;;;;5041156;28;20115;-72
2022/03/27 08:06:36;;;;;;;10.70;4.97;;;;;;;;;;5044677;28;20735;-73
2022/03/27 08:09:02;;;;;;;10.15;5.07;;;;;;;;;;5038868;28;20032;-73
2022/03/27 08:11:28;;;;;;;11.73;5.97;;;;;;;;;;5032182;28;20037;-73
2022/03/27 08:13:54;;;;;;;16.10;6.45;;;;;;;;;;5045029;28;20033;-73
2022/03/27 08:16:20;;;;;;;10.40;5.30;;;;;;;;;;5040976;28;21309;-73
2022/03/27 08:18:46;;;;;;;11.50;5.20;;;;;;;;;;5034995;28;20135;-72
2022/03/27 08:21:12;;;;;;;10.77;5.60;;;;;;;;;;5035780;28;20629;-73
2022/03/27 08:23:38;;;;;;;10.18;5.07;;;;;;;;;;5039545;28;20453;-72
2022/03/27 08:28:49;;;;;;;12.48;5.35;;;;;;;;;;5036632;28;20048;-72
2022/03/27 08:31:15;;;;;;;14.32;5.22;;;;;;;;;;5037348;28;20219;-73
2022/03/27 08:33:41;;;;;;;10.48;5.25;;;;;;;;;;5039262;28;20116;-73
2022/03/27 08:36:07;;;;;;;8.57;4.85;;;;;;;;;;5039998;28;20029;-71
2022/03/27 08:38:33;;;;;;;11.05;5.25;;;;;;;;;;5041837;28;20038;-72
2022/03/27 08:41:01;;;;;;;11.57;5.70;;;;;;;;;;5048137;28;20039;-72
2022/03/27 08:43:31;;;;;;;10.80;5.50;;;;;;;;;;5044554;28;20029;-72
2022/03/27 08:45:58;;;;;;;10.25;5.45;;;;;;;;;;5042805;28;20087;-72
2022/03/27 08:48:24;;;;;;;11.25;5.45;;;;;;;;;;5037033;28;20031;-71
2022/03/27 08:51:05;;;;;;;11.05;5.00;;;;;;;;;;5039078;28;20029;-72
2022/03/27 08:53:43;;;;;;;11.45;5.43;;;;;;;;;;5048143;28;20774;-72
2022/03/27 08:56:10;;;;;;;11.35;5.15;;;;;;;;;;5044181;28;20047;-72
2022/03/27 08:58:40;;;;;;;14.20;4.90;;;;;;;;;;5047402;28;20064;-74
2022/03/27 09:01:06;;;;;;;12.23;5.20;;;;;;;;;;5053250;28;20104;-75
2022/03/27 09:03:33;;;;;;;16.63;5.50;;;;;;;;;;5045785;28;20046;-74
2022/03/27 09:06:01;;;;;;;10.35;5.00;;;;;;;;;;5037441;28;20029;-73
2022/03/27 09:08:29;;;;;;;10.02;5.45;;;;;;;;;;5044103;28;20036;-73
2022/03/27 09:10:55;;;;;;;10.07;5.50;;;;;;;;;;5039236;28;20033;-73
2022/03/27 09:13:21;;;;;;;11.55;5.78;;;;;;;;;;5044195;28;20404;-74
2022/03/27 09:15:56;;;;;;;8.25;4.60;;;;;;;;;;5038553;28;20473;-73
2022/03/27 09:18:23;;;;;;;8.80;5.10;;;;;;;;;;5043996;28;20029;-73
2022/03/27 09:20:53;;;;;;;11.43;5.93;;;;;;;;;;5038690;28;20471;-74
2022/03/27 09:23:23;;;;;;;14.00;4.93;;;;;;;;;;5042014;28;20550;-74
2022/03/27 09:26:11;;;;;;;9.00;5.30;;;;;;;;;;5047860;28;20040;-74
2022/03/27 09:28:41;;;;;;;9.23;4.63;;;;;;;;;;5046314;28;20029;-74
2022/03/27 09:31:07;;;;;;;9.57;4.93;;;;;;;;;;5049576;28;20025;-74
2022/03/27 09:33:33;;;;;;;11.93;5.75;;;;;;;;;;5051524;28;20123;-74
2022/03/27 09:36:07;;;;;;;12.75;5.28;;;;;;;;;;5043720;28;20056;-74
2022/03/27 09:38:34;;;;;;;9.23;4.72;;;;;;;;;;5039588;28;20029;-74
2022/03/27 09:41:00;;;;;;;13.48;5.32;;;;;;;;;;5037819;28;20384;-75
2022/03/27 09:43:26;;;;;;;9.63;5.10;;;;;;;;;;5046655;28;20069;-74
2022/03/27 09:45:57;;;;;;;10.25;5.53;;;;;;;;;;5045438;28;20029;-74
2022/03/27 09:48:23;;;;;;;12.30;5.22;;;;;;;;;;5043938;28;20025;-74
2022/03/27 09:50:51;;;;;;;12.02;5.30;;;;;;;;;;5033809;28;20074;-75
2022/03/27 09:53:19;;;;;;;9.27;5.18;;;;;;;;;;5041791;28;20116;-74
2022/03/27 09:55:46;;;;;;;15.30;5.70;;;;;;;;;;5047545;28;20041;-74
2022/03/27 09:58:15;;;;;;;10.63;5.47;;;;;;;;;;5046661;28;20432;-74
2022/03/27 10:00:42;;;;;;;12.18;5.18;;;;;;;;;;5048900;28;20039;-74
2022/03/27 10:03:11;;;;;;;10.23;4.88;;;;;;;;;;5046675;28;20051;-74
2022/03/27 10:05:38;;;;;;;10.77;5.57;;;;;;;;;;5045824;28;20060;-74
2022/03/27 10:08:04;;;;;;;12.60;5.15;;;;;;;;;;5045254;28;20102;-74
2022/03/27 10:10:31;;;;;;;11.55;5.45;;;;;;;;;;5044633;28;20029;-74
2022/03/27 10:12:57;;;;;;;11.82;5.90;;;;;;;;;;5046918;28;20024;-74
2022/03/27 10:15:25;;;;;;;14.05;5.55;;;;;;;;;;5043156;28;20480;-73
2022/03/27 10:17:55;;;;;;;11.73;6.43;;;;;;;;;;5039265;28;20029;-72
2022/03/27 10:20:29;;;;;;;11.65;5.55;;;;;;;;;;5035012;28;20063;-74
2022/03/27 10:23:01;;;;;;;11.27;5.22;;;;;;;;;;5045313;28;20112;-74
2022/03/27 10:25:34;;;;;;;9.75;5.65;;;;;;;;;;5041515;28;20073;-74
2022/03/27 10:28:01;;;;;;;10.45;6.32;;;;;;;;;;5036559;28;20026;-74
2022/03/27 10:30:28;;;;;;;12.90;6.32;;;;;;;;;;5039061;28;20142;-73
2022/03/27 10:32:56;;;;;;;16.10;6.82;;;;;;;;;;5055200;28;20091;-74
2022/03/27 10:35:40;;;;;;;10.65;6.15;;;;;;;;;;5045556;28;20036;-74
2022/03/27 10:38:29;;;;;;;10.82;5.22;;;;;;;;;;5048256;28;20103;-74
2022/03/27 10:41:09;;;;;;;13.13;5.72;;;;;;;;;;5041179;28;20567;-74
2022/03/27 10:43:54;;;;;;;13.60;6.00;;;;;;;;;;5044250;28;20529;-74
2022/03/27 10:46:21;;;;;;;11.00;5.75;;;;;;;;;;5036353;28;20051;-74
2022/03/27 10:48:49;;;;;;;10.50;5.40;;;;;;;;;;5045173;28;20044;-74
2022/03/27 10:51:28;;;;;;;10.85;6.47;;;;;;;;;;5037357;28;20052;-74
2022/03/27 10:54:02;;;;;;;12.00;6.32;;;;;;;;;;5040748;28;20065;-74
2022/03/27 10:56:44;;;;;;;11.57;6.00;;;;;;;;;;5047112;28;20024;-73
2022/03/27 10:59:12;;;;;;;11.90;6.55;;;;;;;;;;5052049;28;20044;-74
2022/03/27 11:01:39;;;;;;;10.75;5.82;;;;;;;;;;5041213;28;20025;-74
2022/03/27 11:04:05;;;;;;;11.18;5.82;;;;;;;;;;5030331;28;20067;-74
2022/03/27 11:06:33;;;;;;;11.85;5.80;;;;;;;;;;5028821;28;20501;-73
2022/03/27 11:09:00;;;;;;;16.35;6.80;;;;;;;;;;5036970;28;20025;-73
2022/03/27 11:11:38;;;;;;;15.10;6.30;;;;;;;;;;5044061;28;20116;-73
2022/03/27 11:14:05;;;;;;;11.20;6.03;;;;;;;;;;5046022;28;20098;-73
2022/03/27 11:16:33;;;;;;;11.23;5.93;;;;;;;;;;5040050;28;20029;-73
2022/03/27 11:18:59;;;;;;;9.20;6.05;;;;;;;;;;5043727;28;20090;-73
2022/03/27 11:21:28;;;;;;;12.57;8.27;;;;;;;;;;5040039;28;20773;-73
2022/03/27 11:24:03;;;;;;;14.77;6.97;;;;;;;;;;5047437;28;20041;-73
2022/03/27 11:26:32;;;;;;;13.07;7.28;;;;;;;;;;5042857;28;20055;-73
2022/03/27 11:29:04;;;;;;;10.90;6.78;;;;;;;;;;5044008;28;20036;-73
2022/03/27 11:31:31;;;;;;;12.20;6.90;;;;;;;;;;5038971;28;20113;-73
2022/03/27 11:34:07;;;;;;;13.10;6.80;;;;;;;;;;5045521;28;20053;-73
2022/03/27 11:36:34;;;;;;;13.32;7.53;;;;;;;;;;5040073;28;20033;-73
2022/03/27 11:39:07;;;;;;;11.23;7.15;;;;;;;;;;5047211;28;20033;-73
2022/03/27 11:41:43;;;;;;;15.23;7.13;;;;;;;;;;5045162;28;20029;-73
2022/03/27 11:44:18;;;;;;;18.35;8.40;;;;;;;;;;5032087;28;20037;-73
2022/03/27 11:46:45;;;;;;;12.43;7.40;;;;;;;;;;5047584;28;20036;-73
2022/03/27 11:49:11;;;;;;;17.55;7.95;;;;;;;;;;5045296;28;20033;-73
2022/03/27 11:51:37;;;;;;;14.27;7.88;;;;;;;;;;5044599;28;20040;-74
2022/03/27 11:54:15;;;;;;;14.73;9.70;;;;;;;;;;5043255;28;20076;-73
2022/03/27 11:57:02;;;;;;;14.90;8.60;;;;;;;;;;5044117;28;20034;-73
2022/03/27 11:59:28;;;;;;;15.73;9.38;;;;;;;;;;5045366;28;20029;-73
2022/03/27 12:01:55;;;;;;;16.27;7.85;;;;;;;;;;5050673;28;20033;-73
2022/03/27 12:04:21;;;;;;;15.68;8.65;;;;;;;;;;5046749;28;20412;-73
2022/03/27 12:06:47;;;;;;;14.90;8.90;;;;;;;;;;5050170;28;20056;-73
2022/03/27 12:09:25;;;;;;;17.35;9.07;;;;;;;;;;5051507;28;20036;-73
2022/03/27 12:12:03;;;;;;;13.38;8.32;;;;;;;;;;5032437;28;20448;-73
2022/03/27 12:14:29;;;;;;;16.35;7.78;;;;;;;;;;5035276;28;20033;-73
2022/03/27 12:16:55;;;;;;;15.15;9.02;;;;;;;;;;5047256;28;20055;-73
2022/03/27 12:19:21;;;;;;;16.23;9.98;;;;;;;;;;5045957;28;20024;-73
2022/03/27 12:21:47;;;;;;;18.60;11.75;;;;;;;;;;5037417;28;20029;-73
2022/03/27 12:24:16;;;;;;;17.17;11.55;;;;;;;;;;5042705;28;20127;-73
2022/03/27 12:29:51;;;;;;;16.65;10.45;;;;;;;;;;5010956;28;20041;-73
2022/03/27 12:32:21;;;;;;;18.38;9.32;;;;;;;;;;5009635;28;20046;-73
2022/03/27 12:34:51;;;;;;;14.48;9.27;;;;;;;;;;5034967;28;20574;-73
2022/03/27 12:37:21;;;;;;;15.90;9.27;;;;;;;;;;5042575;28;20792;-73
2022/03/27 12:39:47;;;;;;;16.58;9.77;;;;;;;;;;5043877;28;20037;-73
2022/03/27 12:42:29;;;;;;;16.92;10.38;;;;;;;;;;5042849;28;20387;-73
2022/03/27 12:44:55;;;;;;;18.15;10.77;;;;;;;;;;5049182;28;20025;-73
2022/03/27 12:47:37;;;;;;;13.95;8.88;;;;;;;;;;5040982;28;20543;-73
2022/03/27 12:50:03;;;;;;;27.30;15.48;;;;;;;;;;5032485;28;20082;-73
2022/03/27 12:52:30;;;;;;;24.60;13.18;;;;;;;;;;5045578;28;20037;-73
2022/03/27 12:55:00;;;;;;;19.73;13.40;;;;;;;;;;5042336;28;20388;-73
2022/03/27 12:57:46;;;;;;;17.27;9.95;;;;;;;;;;5042736;28;20041;-73
2022/03/27 13:00:13;;;;;;;17.92;9.77;;;;;;;;;;5043606;28;20080;-73
2022/03/27 13:02:39;;;;;;;18.73;9.15;;;;;;;;;;5040897;28;20078;-73
2022/03/27 13:05:05;;;;;;;14.27;9.30;;;;;;;;;;5041769;28;20792;-73
2022/03/27 13:07:51;;;;;;;14.43;9.30;;;;;;;;;;5044270;28;20034;-73
2022/03/27 13:10:18;;;;;;;20.92;11.13;;;;;;;;;;5049348;28;20594;-73
2022/03/27 13:12:44;;;;;;;16.60;10.07;;;;;;;;;;5040304;28;20033;-73
2022/03/27 13:15:10;;;;;;;17.67;10.75;;;;;;;;;;5037528;28;20040;-73
2022/03/27 13:17:37;;;;;;;19.63;10.23;;;;;;;;;;5044059;28;20107;-73
2022/03/27 13:20:04;;;;;;;17.77;10.85;;;;;;;;;;5037744;28;20037;-73
2022/03/27 13:22:30;;;;;;;21.27;10.13;;;;;;;;;;5033393;28;20033;-73
2022/03/27 13:24:56;;;;;;;17.48;10.02;;;;;;;;;;5041306;28;20566;-73
2022/03/27 13:27:22;;;;;;;15.98;10.50;;;;;;;;;;5040756;28;20026;-73
2022/03/27 13:29:48;;;;;;;17.95;10.60;;;;;;;;;;5048900;28;20083;-73
2022/03/27 13:32:14;;;;;;;16.98;9.80;;;;;;;;;;5042014;28;20025;-73
2022/03/27 13:34:40;;;;;;;17.98;9.88;;;;;;;;;;5045028;28;20084;-73
2022/03/27 13:37:06;;;;;;;18.23;10.30;;;;;;;;;;5044136;28;20033;-73
2022/03/27 13:39:32;;;;;;;15.07;9.45;;;;;;;;;;5036344;28;20043;-73
2022/03/27 13:44:43;;;;;;;16.85;10.82;;;;;;;;;;5041427;28;20070;-73
2022/03/27 13:47:10;;;;;;;15.75;10.50;;;;;;;;;;5042750;28;20780;-73
2022/03/27 13:49:36;;;;;;;18.23;10.63;;;;;;;;;;5046085;28;20116;-73
2022/03/27 13:52:02;;;;;;;17.83;10.00;;;;;;;;;;5038353;28;20052;-73
2022/03/27 13:54:28;;;;;;;18.55;11.35;;;;;;;;;;5042599;28;20045;-73
2022/03/27 13:56:54;;;;;;;20.08;11.93;;;;;;;;;;5043596;28;20025;-73
2022/03/27 13:59:20;;;;;;;21.48;11.65;;;;;;;;;;5052647;28;20515;-73
2022/03/27 14:01:49;;;;;;;17.75;10.27;;;;;;;;;;5040214;28;20079;-73
2022/03/27 14:04:15;;;;;;;18.85;10.88;;;;;;;;;;5032224;28;20049;-73
2022/03/27 14:06:42;;;;;;;14.65;8.90;;;;;;;;;;5044274;28;20025;-73
2022/03/27 14:09:08;;;;;;;16.85;10.95;;;;;;;;;;5052556;28;20044;-73
2022/03/27 14:11:35;;;;;;;19.23;10.82;;;;;;;;;;5040225;28;20063;-73
2022/03/27 14:14:01;;;;;;;14.73;9.90;;;;;;;;;;5041434;28;20036;-74
2022/03/27 14:16:28;;;;;;;14.77;10.23;;;;;;;;;;5046177;28;20029;-73
2022/03/27 14:18:55;;;;;;;15.35;9.80;;;;;;;;;;5045532;28;20043;-73
2022/03/27 14:21:21;;;;;;;14.57;10.00;;;;;;;;;;5036744;28;20051;-73
2022/03/27 14:23:47;;;;;;;17.98;10.02;;;;;;;;;;5041286;28;20041;-73
2022/03/27 14:26:13;;;;;;;24.45;10.52;;;;;;;;;;5043872;28;20040;-73
2022/03/27 14:28:39;;;;;;;15.98;10.05;;;;;;;;;;5036888;28;20102;-73
2022/03/27 14:31:05;;;;;;;16.33;9.43;;;;;;;;;;5043474;28;20830;-73
2022/03/27 14:33:32;;;;;;;18.85;9.48;;;;;;;;;;5036273;28;20048;-73
2022/03/27 14:35:58;;;;;;;14.05;9.75;;;;;;;;;;5046542;28;20034;-73
2022/03/27 14:38:25;;;;;;;14.65;9.48;;;;;;;;;;5038442;28;20191;-73
2022/03/27 14:40:51;;;;;;;15.02;9.60;;;;;;;;;;5041629;28;20036;-73
2022/03/27 14:43:17;;;;;;;18.35;10.68;;;;;;;;;;5036506;28;20140;-73
2022/03/27 14:45:43;;;;;;;14.50;10.27;;;;;;;;;;5044583;28;20108;-74
2022/03/27 14:48:10;;;;;;;14.85;9.60;;;;;;;;;;5039506;28;20056;-74